Suehiro Maru No.8 — JK5423 — position and weather

sailwx.info

Track history (hours):
 
Tides and Currents Weather Stations Pressure Air Temp Water Temp Dewpoint Dewpoint Depression Visibility Wind Speed Wind Dir Waves Ship Positions

Suehiro Maru No.8

Last reported at 2015-Jan-21 09:05 UTC. Time now 2015-Jan-28 20:14 UTC.
Position N 34°50' E 139°12'.

Length 88 m; draft 3.5 m.

Type: Cargo ship. MMSI: 431400446.

Date/timePositionNaut miles runAvg speedWind from/ knotsBaromVisibWave heightAir tempDewpointWater temp
2015-Jan-21 09:05N 34°50' E 139°12'712.2
2015-Jan-21 08:28N 34°55' E 139°19'1112.2
2015-Jan-21 07:32N 35°02' E 139°30'1212.0
2015-Jan-21 06:33N 35°08' E 139°42'1010.0
2015-Jan-21 05:33N 35°18' E 139°44'10 9.7
2015-Jan-21 04:33N 35°27' E 139°48'10 9.7
2015-Jan-21 03:33N 35°37' E 139°48'0 0.1
2015-Jan-21 01:30N 35°37' E 139°49'0 0.0
2015-Jan-21 00:14N 35°37' E 139°49'0 0.0
2015-Jan-20 23:26N 35°37' E 139°49'0 0.0
2015-Jan-20 22:29N 35°37' E 139°49'1 1.0
2015-Jan-20 21:33N 35°37' E 139°49'10 9.9
2015-Jan-20 20:33N 35°27' E 139°51'5 4.7
2015-Jan-20 19:25N 35°22' E 139°53'0 0.0
2015-Jan-20 18:33N 35°22' E 139°53'0 0.0
2015-Jan-20 17:33N 35°22' E 139°53'0 0.0
2015-Jan-20 16:33N 35°22' E 139°53'0 0.0
2015-Jan-20 15:33N 35°22' E 139°53'0 0.0
2015-Jan-20 14:30N 35°22' E 139°53'0 0.0
2015-Jan-20 13:33N 35°22' E 139°53'0 0.0
2015-Jan-20 12:26N 35°22' E 139°53'0 0.0
2015-Jan-20 11:26N 35°22' E 139°53'1 1.2
2015-Jan-20 10:33N 35°22' E 139°51'8 8.0
2015-Jan-20 09:33N 35°29' E 139°56'3 2.3
2015-Jan-20 08:12N 35°28' E 140°00'0 0.0
2015-Jan-20 07:33N 35°28' E 140°00'0 0.0
2015-Jan-20 06:32N 35°28' E 140°00'0 0.0
2015-Jan-20 05:21N 35°28' E 140°00'3 1.4
2015-Jan-20 03:22N 35°30' E 139°57'1010.4
2015-Jan-20 02:23N 35°38' E 139°50'0 0.0
2015-Jan-19 21:28N 35°38' E 139°50'1 0.7
2015-Jan-19 20:33N 35°37' E 139°49'6 6.5
2015-Jan-19 19:33N 35°31' E 139°53'9 8.6
2015-Jan-19 18:34N 35°25' E 139°47'1110.6
2015-Jan-19 17:33N 35°14' E 139°47'1111.1
2015-Jan-19 16:33N 35°03' E 139°42'1111.2
2015-Jan-19 15:33N 34°57' E 139°31'  
2015-Jan-16 23:09N 34°48' E 139°15'1110.8
2015-Jan-16 22:10N 34°52' E 139°27'16 9.5
2015-Jan-16 20:27N 34°52' E 139°47'  
Track history (hours):
 
Tides and Currents Weather Stations Pressure Air Temp Water Temp Dewpoint Dewpoint Depression Visibility Wind Speed Wind Dir Waves Ship Positions

Suehiro Maru No.8

Last reported at 2015-Jan-21 09:05 UTC. Time now 2015-Jan-28 20:14 UTC.
Position N 34°50' E 139°12'.

Length 88 m; draft 3.5 m.

Type: Cargo ship. MMSI: 431400446.

Date/timePositionNaut miles runAvg speedWind from/ knotsBaromVisibWave heightAir tempDewpointWater temp
2015-Jan-21 09:05N 34°50' E 139°12'712.2
2015-Jan-21 08:28N 34°55' E 139°19'1112.2
2015-Jan-21 07:32N 35°02' E 139°30'1212.0
2015-Jan-21 06:33N 35°08' E 139°42'1010.0
2015-Jan-21 05:33N 35°18' E 139°44'10 9.7
2015-Jan-21 04:33N 35°27' E 139°48'10 9.7
2015-Jan-21 03:33N 35°37' E 139°48'0 0.1
2015-Jan-21 01:30N 35°37' E 139°49'0 0.0
2015-Jan-21 00:14N 35°37' E 139°49'0 0.0
2015-Jan-20 23:26N 35°37' E 139°49'0 0.0
2015-Jan-20 22:29N 35°37' E 139°49'1 1.0
2015-Jan-20 21:33N 35°37' E 139°49'10 9.9
2015-Jan-20 20:33N 35°27' E 139°51'5 4.7
2015-Jan-20 19:25N 35°22' E 139°53'0 0.0
2015-Jan-20 18:33N 35°22' E 139°53'0 0.0
2015-Jan-20 17:33N 35°22' E 139°53'0 0.0
2015-Jan-20 16:33N 35°22' E 139°53'0 0.0
2015-Jan-20 15:33N 35°22' E 139°53'0 0.0
2015-Jan-20 14:30N 35°22' E 139°53'0 0.0
2015-Jan-20 13:33N 35°22' E 139°53'0 0.0
2015-Jan-20 12:26N 35°22' E 139°53'0 0.0
2015-Jan-20 11:26N 35°22' E 139°53'1 1.2
2015-Jan-20 10:33N 35°22' E 139°51'8 8.0
2015-Jan-20 09:33N 35°29' E 139°56'3 2.3
2015-Jan-20 08:12N 35°28' E 140°00'0 0.0
2015-Jan-20 07:33N 35°28' E 140°00'0 0.0
2015-Jan-20 06:32N 35°28' E 140°00'0 0.0
2015-Jan-20 05:21N 35°28' E 140°00'3 1.4
2015-Jan-20 03:22N 35°30' E 139°57'1010.4
2015-Jan-20 02:23N 35°38' E 139°50'0 0.0
2015-Jan-19 21:28N 35°38' E 139°50'1 0.7
2015-Jan-19 20:33N 35°37' E 139°49'6 6.5
2015-Jan-19 19:33N 35°31' E 139°53'9 8.6
2015-Jan-19 18:34N 35°25' E 139°47'1110.6
2015-Jan-19 17:33N 35°14' E 139°47'1111.1
2015-Jan-19 16:33N 35°03' E 139°42'1111.2
2015-Jan-19 15:33N 34°57' E 139°31'  
2015-Jan-16 23:09N 34°48' E 139°15'1110.8
2015-Jan-16 22:10N 34°52' E 139°27'16 9.5
2015-Jan-16 20:27N 34°52' E 139°47'  

Dump ship's entire track history